This is the latest recevied weather packets stored in our database for station/object LU8FJH-13. If no packets are shown the sender has not sent any weather packets the latest 10 day(s).
| Time | Temp. | Humidity | Pressure | Rain* | Wind** | Luminosity | Snow |
|---|---|---|---|---|---|---|---|
| 1777564312 | 27.22° C | 38% | 1013.8 hPa | 0 mm | - | - | - |
| 1777563772 | 27.22° C | 40% | 1013.8 hPa | 0 mm | - | - | - |
| 1777563232 | 26.67° C | 40% | 1013.7 hPa | 0 mm | - | - | - |
| 1777562692 | 27.22° C | 39% | 1013.9 hPa | 0 mm | - | - | - |
| 1777562152 | 26.67° C | 41% | 1014.2 hPa | 0 mm | - | - | - |
| 1777561612 | 26.11° C | 42% | 1014.5 hPa | 0 mm | - | - | - |
| 1777561072 | 25.56° C | 42% | 1014.3 hPa | 0 mm | - | - | - |
| 1777560532 | 25.56° C | 42% | 1014.5 hPa | 0 mm | - | - | - |
| 1777559991 | 25.56° C | 42% | 1014.6 hPa | 0 mm | - | - | - |
| 1777559451 | 25° C | 42% | 1014.7 hPa | 0 mm | - | - | - |
| 1777558912 | 23.89° C | 47% | 1014.5 hPa | 0 mm | - | - | - |
| 1777558372 | 23.33° C | 48% | 1014.6 hPa | 0 mm | - | - | - |
| 1777557832 | 23.33° C | 47% | 1014.8 hPa | 0 mm | - | - | - |
| 1777557292 | 22.22° C | 48% | 1014.5 hPa | 0 mm | - | - | - |
| 1777556751 | 22.78° C | 46% | 1014.6 hPa | 0 mm | - | - | - |
| 1777556211 | 22.22° C | 45% | 1014.6 hPa | 0 mm | - | - | - |
| 1777555672 | 22.22° C | 45% | 1014.5 hPa | 0 mm | - | - | - |
| 1777555131 | 22.22° C | 46% | 1014.4 hPa | 0 mm | - | - | - |
| 1777554591 | 21.11° C | 49% | 1014.4 hPa | 0 mm | - | - | - |
| 1777554052 | 21.11° C | 47% | 1014.6 hPa | 0 mm | - | - | - |
| 1777553512 | 20.56° C | 50% | 1014.5 hPa | 0 mm | - | - | - |
| 1777552971 | 20° C | 50% | 1014.4 hPa | 0 mm | - | - | - |
| 1777552431 | 20° C | 49% | 1014.5 hPa | 0 mm | - | - | - |
| 1777551891 | 20° C | 48% | 1014.4 hPa | 0 mm | - | - | - |
| 1777551352 | 19.44° C | 51% | 1014.3 hPa | 0 mm | - | - | - |
* Rain latest hour (hover to see other rain measurements)
** Current wind speed in m/s (hover to see current wind gust speed)